Time;durP1;ratioP1;P1;durP2;ratioP2;P2;SDS_P1;SDS_P2;PMS_P1;PMS_P2;Temp;Humidity;BMP_temperature;BMP_pressure;BME280_temperature;BME280_humidity;BME280_pressure;Samples;Min_cycle;Max_cycle;Signal;HPM_P1;HPM_P2
2024/01/04 00:01:31;;;;;;;0.50;0.50;;;;;;;4.28;100.00;99221.03;4981119;28;20037;-74
2024/01/04 00:03:58;;;;;;;0.40;0.40;;;;;;;4.21;100.00;99220.09;4981408;28;20046;-74
2024/01/04 00:06:23;;;;;;;0.50;0.50;;;;;;;4.23;100.00;99227.88;4981019;28;20139;-74
2024/01/04 00:08:49;;;;;;;0.47;0.47;;;;;;;4.20;100.00;99207.78;4980637;28;20457;-74
2024/01/04 00:11:16;;;;;;;0.50;0.50;;;;;;;4.23;100.00;99219.91;4980840;28;20104;-74
2024/01/04 00:13:42;;;;;;;0.40;0.40;;;;;;;4.20;100.00;99213.09;4980802;28;20033;-74
2024/01/04 00:16:16;;;;;;;0.50;0.50;;;;;;;4.14;100.00;99216.44;4980543;28;20026;-74
2024/01/04 00:18:42;;;;;;;0.40;0.40;;;;;;;4.14;100.00;99225.25;4981461;28;20044;-74
2024/01/04 00:21:14;;;;;;;0.50;0.50;;;;;;;4.21;100.00;99236.06;4997737;28;20041;-74
2024/01/04 00:23:40;;;;;;;0.40;0.40;;;;;;;4.35;100.00;99237.97;4980569;28;20036;-74
2024/01/04 00:26:07;;;;;;;0.50;0.50;;;;;;;4.47;100.00;99232.25;4980704;28;20040;-74
2024/01/04 00:28:32;;;;;;;0.50;0.50;;;;;;;4.47;100.00;99227.75;4996779;28;20088;-74
2024/01/04 00:30:58;;;;;;;0.50;0.50;;;;;;;4.38;100.00;99216.34;4980532;28;20029;-74
2024/01/04 00:33:29;;;;;;;0.40;0.40;;;;;;;4.44;100.00;99229.94;4981384;28;20388;-74
2024/01/04 00:35:55;;;;;;;0.40;0.40;;;;;;;4.56;100.00;99228.56;4996434;28;20038;-74
2024/01/04 00:38:21;;;;;;;0.50;0.50;;;;;;;4.64;100.00;99231.19;4980500;28;20384;-75
2024/01/04 00:40:47;;;;;;;0.40;0.40;;;;;;;4.66;100.00;99215.88;4980550;28;20146;-74
2024/01/04 00:43:12;;;;;;;0.40;0.40;;;;;;;4.62;100.00;99206.56;4996459;28;20026;-74
2024/01/04 00:45:38;;;;;;;0.40;0.40;;;;;;;4.55;100.00;99213.59;4980657;28;20527;-74
2024/01/04 00:48:06;;;;;;;0.40;0.40;;;;;;;4.41;100.00;99221.31;4980716;28;20432;-75
2024/01/04 00:50:32;;;;;;;0.40;0.40;;;;;;;4.23;100.00;99225.22;5012743;28;20507;-74
2024/01/04 00:52:58;;;;;;;0.40;0.40;;;;;;;4.08;100.00;99223.28;4980289;28;20065;-74
2024/01/04 00:55:24;;;;;;;0.40;0.40;;;;;;;3.99;100.00;99218.16;4996426;28;20044;-74
2024/01/04 00:57:49;;;;;;;0.40;0.40;;;;;;;3.91;100.00;99224.34;5012371;28;20033;-74
2024/01/04 01:00:15;;;;;;;0.50;0.50;;;;;;;3.76;100.00;99224.22;4980158;28;20033;-74
2024/01/04 01:02:41;;;;;;;0.50;0.50;;;;;;;3.66;100.00;99215.59;4995994;28;20045;-74
2024/01/04 01:05:07;;;;;;;0.45;0.45;;;;;;;3.55;100.00;99224.75;4981346;28;20400;-74
2024/01/04 01:07:33;;;;;;;0.50;0.50;;;;;;;3.47;100.00;99222.94;4984624;28;20073;-75
2024/01/04 01:09:58;;;;;;;0.40;0.40;;;;;;;3.35;100.00;99223.44;5000614;28;20439;-74
2024/01/04 01:12:24;;;;;;;0.40;0.40;;;;;;;3.28;100.00;99221.47;4984125;28;20452;-74
2024/01/04 01:14:50;;;;;;;0.40;0.40;;;;;;;3.21;100.00;99220.44;4984403;28;20045;-74
2024/01/04 01:17:18;;;;;;;0.50;0.50;;;;;;;3.12;100.00;99221.44;4984672;28;20034;-74
2024/01/04 01:19:45;;;;;;;0.40;0.40;;;;;;;3.07;100.00;99223.78;4984026;28;20046;-74
2024/01/04 01:22:10;;;;;;;0.50;0.50;;;;;;;3.08;100.00;99228.09;4984092;28;20124;-74
2024/01/04 01:24:40;;;;;;;0.40;0.40;;;;;;;3.09;100.00;99229.72;4983901;28;20068;-74
2024/01/04 01:27:07;;;;;;;0.50;0.50;;;;;;;3.05;100.00;99225.75;4984015;28;20480;-74
2024/01/04 01:29:33;;;;;;;0.50;0.50;;;;;;;3.04;100.00;99222.28;4983782;28;20256;-74
2024/01/04 01:32:01;;;;;;;0.50;0.50;;;;;;;3.07;100.00;99221.13;4999982;28;20065;-74
2024/01/04 01:34:29;;;;;;;0.40;0.40;;;;;;;3.03;100.00;99231.22;5016038;28;20092;-74
2024/01/04 01:36:55;;;;;;;0.50;0.50;;;;;;;3.08;100.00;99234.22;4983968;28;20034;-74
2024/01/04 01:39:21;;;;;;;0.50;0.50;;;;;;;3.07;100.00;99229.09;4983326;28;20112;-74
2024/01/04 01:41:52;;;;;;;0.50;0.50;;;;;;;3.02;100.00;99234.88;4984988;28;20030;-74
2024/01/04 01:44:21;;;;;;;0.50;0.50;;;;;;;3.07;100.00;99243.19;4984217;28;20056;-74
2024/01/04 01:46:46;;;;;;;0.50;0.50;;;;;;;3.28;100.00;99244.50;4967791;28;20512;-74
2024/01/04 01:49:12;;;;;;;0.40;0.40;;;;;;;3.32;100.00;99247.69;4999751;28;20108;-74
2024/01/04 01:51:38;;;;;;;0.50;0.50;;;;;;;3.26;100.00;99247.34;4983415;28;20030;-74
2024/01/04 01:54:07;;;;;;;0.47;0.47;;;;;;;3.18;100.00;99255.31;4999334;28;20512;-74
2024/01/04 01:56:36;;;;;;;0.40;0.40;;;;;;;3.09;100.00;99257.13;4983373;28;20388;-74
2024/01/04 01:59:02;;;;;;;0.40;0.40;;;;;;;3.05;100.00;99254.97;5015733;28;20053;-74
2024/01/04 02:01:31;;;;;;;0.50;0.50;;;;;;;2.97;100.00;99258.44;4983380;28;20465;-74
2024/01/04 02:03:59;;;;;;;0.40;0.40;;;;;;;2.89;100.00;99250.47;5015504;28;20030;-74
2024/01/04 02:06:25;;;;;;;0.40;0.40;;;;;;;2.90;100.00;99249.47;4982849;28;20040;-74
2024/01/04 02:08:53;;;;;;;0.50;0.50;;;;;;;2.93;100.00;99251.78;4982994;28;20049;-74
2024/01/04 02:11:22;;;;;;;0.40;0.40;;;;;;;2.96;100.00;99251.44;4983143;28;20037;-74
2024/01/04 02:13:47;;;;;;;0.50;0.50;;;;;;;2.96;100.00;99255.94;4999031;28;20029;-74
2024/01/04 02:16:13;;;;;;;0.50;0.50;;;;;;;2.93;100.00;99257.09;5014098;28;20038;-74
2024/01/04 02:18:42;;;;;;;0.50;0.50;;;;;;;2.98;100.00;99257.44;4982839;28;20033;-74
2024/01/04 02:21:09;;;;;;;0.40;0.40;;;;;;;2.95;100.00;99256.94;4983163;28;20069;-74
2024/01/04 02:23:35;;;;;;;0.40;0.40;;;;;;;2.93;100.00;99272.19;4983262;28;20468;-74
2024/01/04 02:26:03;;;;;;;0.40;0.40;;;;;;;2.87;100.00;99273.69;4982861;28;20096;-74
2024/01/04 02:28:31;;;;;;;0.50;0.50;;;;;;;2.85;100.00;99267.72;4982553;28;20073;-74
2024/01/04 02:30:59;;;;;;;0.40;0.40;;;;;;;2.86;100.00;99272.03;4998691;28;20044;-74
2024/01/04 02:33:24;;;;;;;0.47;0.47;;;;;;;2.83;100.00;99277.66;4983060;28;20026;-74
2024/01/04 02:35:53;;;;;;;0.50;0.50;;;;;;;2.82;100.00;99276.81;4983455;28;20026;-75
2024/01/04 02:38:19;;;;;;;0.50;0.50;;;;;;;2.70;100.00;99283.44;4982285;28;20034;-74
2024/01/04 02:40:46;;;;;;;0.50;0.50;;;;;;;2.76;100.00;99284.63;4998850;28;20100;-74
2024/01/04 02:43:12;;;;;;;0.45;0.45;;;;;;;2.76;100.00;99284.63;4982342;28;20554;-74
2024/01/04 02:45:38;;;;;;;0.50;0.50;;;;;;;2.77;100.00;99278.31;4982654;28;20030;-74
2024/01/04 02:48:11;;;;;;;0.50;0.50;;;;;;;2.82;100.00;99289.28;4998269;28;20396;-74
2024/01/04 02:50:41;;;;;;;0.50;0.50;;;;;;;2.90;100.00;99283.97;4998589;28;20088;-74
2024/01/04 02:53:07;;;;;;;0.50;0.50;;;;;;;2.99;100.00;99290.97;4982497;28;20041;-74
2024/01/04 02:55:33;;;;;;;0.40;0.40;;;;;;;3.08;100.00;99300.63;4982520;28;20033;-74
2024/01/04 02:57:58;;;;;;;0.45;0.45;;;;;;;3.18;100.00;99307.63;4998552;28;20536;-74
2024/01/04 03:00:26;;;;;;;0.40;0.40;;;;;;;3.33;100.00;99313.09;4982219;28;20037;-74
2024/01/04 03:02:54;;;;;;;0.40;0.40;;;;;;;3.62;100.00;99310.78;4982377;28;20053;-74
2024/01/04 03:05:20;;;;;;;0.50;0.50;;;;;;;3.76;100.00;99303.97;4981756;28;20038;-74
2024/01/04 03:07:46;;;;;;;0.40;0.40;;;;;;;3.83;100.00;99310.25;4982215;28;20061;-74
2024/01/04 03:10:12;;;;;;;0.52;0.52;;;;;;;3.83;100.00;99306.78;4998339;28;20045;-74
2024/01/04 03:12:38;;;;;;;0.45;0.45;;;;;;;3.82;100.00;99315.75;4981978;28;20030;-74
2024/01/04 03:15:06;;;;;;;0.50;0.50;;;;;;;3.76;100.00;99311.94;4982683;28;20045;-74
2024/01/04 03:17:32;;;;;;;0.40;0.40;;;;;;;3.70;100.00;99312.59;4982129;28;20160;-74
2024/01/04 03:19:58;;;;;;;0.50;0.50;;;;;;;3.73;100.00;99307.78;4981913;28;20034;-74
2024/01/04 03:22:24;;;;;;;0.50;0.50;;;;;;;3.73;100.00;99312.25;4997714;28;20046;-74
2024/01/04 03:24:50;;;;;;;0.40;0.40;;;;;;;3.73;100.00;99314.91;4981865;28;20108;-74
2024/01/04 03:27:15;;;;;;;0.40;0.40;;;;;;;3.69;100.00;99310.94;4981580;28;20030;-74
2024/01/04 03:29:42;;;;;;;0.40;0.40;;;;;;;3.62;100.00;99308.13;4981460;28;20037;-74
2024/01/04 03:32:10;;;;;;;0.40;0.40;;;;;;;3.60;100.00;99318.09;4998210;28;20064;-74
2024/01/04 03:34:36;;;;;;;0.50;0.50;;;;;;;3.55;100.00;99323.09;4981402;28;20065;-74
2024/01/04 03:37:02;;;;;;;0.47;0.47;;;;;;;3.55;100.00;99324.88;4997819;28;20128;-74
2024/01/04 03:39:28;;;;;;;0.40;0.40;;;;;;;3.60;100.00;99315.44;4980917;28;20084;-74
2024/01/04 03:41:53;;;;;;;0.50;0.50;;;;;;;3.64;100.00;99307.97;4981555;28;20048;-74
2024/01/04 03:44:19;;;;;;;0.40;0.40;;;;;;;3.59;100.00;99316.41;4996973;28;20030;-74
2024/01/04 03:46:44;;;;;;;0.43;0.43;;;;;;;3.52;100.00;99315.44;4981368;28;20033;-74
2024/01/04 03:49:11;;;;;;;0.40;0.40;;;;;;;3.36;100.00;99310.09;4997417;28;20496;-74
2024/01/04 03:54:42;;;;;;;0.50;0.50;;;;;;;3.05;100.00;99308.91;5002394;28;20022;-74
2024/01/04 03:57:07;;;;;;;0.40;0.40;;;;;;;2.94;100.00;99300.41;4997360;28;20030;-75
2024/01/04 03:59:37;;;;;;;0.40;0.40;;;;;;;2.92;100.00;99307.72;4997223;28;20042;-74
2024/01/04 04:02:03;;;;;;;0.40;0.40;;;;;;;2.92;100.00;99311.19;4976289;28;20069;-74
2024/01/04 04:04:38;;;;;;;0.40;0.40;;;;;;;3.00;100.00;99305.09;4996888;28;20093;-74
2024/01/04 04:07:03;;;;;;;0.47;0.47;;;;;;;2.96;100.00;99309.88;4981190;28;20161;-74
2024/01/04 04:09:29;;;;;;;0.50;0.50;;;;;;;2.91;100.00;99314.88;4980876;28;20128;-74
2024/01/04 04:11:55;;;;;;;0.50;0.50;;;;;;;2.85;100.00;99310.19;4996652;28;20058;-74
2024/01/04 04:14:21;;;;;;;0.50;0.50;;;;;;;2.89;100.00;99314.19;4980746;28;20034;-75
2024/01/04 04:16:49;;;;;;;0.40;0.40;;;;;;;2.92;100.00;99321.81;4964909;28;20073;-74
2024/01/04 04:19:18;;;;;;;0.50;0.50;;;;;;;3.06;100.00;99321.19;4980897;28;20045;-74
2024/01/04 04:21:43;;;;;;;0.50;0.50;;;;;;;3.23;100.00;99315.91;4996963;28;20098;-74
2024/01/04 04:24:09;;;;;;;0.50;0.50;;;;;;;3.36;100.00;99310.97;4980796;28;20073;-74
2024/01/04 04:26:35;;;;;;;0.50;0.50;;;;;;;3.45;100.00;99309.13;4996820;28;20034;-75
2024/01/04 04:29:01;;;;;;;0.50;0.50;;;;;;;3.41;100.00;99297.97;4980736;28;20468;-74
2024/01/04 04:31:27;;;;;;;0.40;0.40;;;;;;;3.27;100.00;99307.44;4980485;28;20036;-74
2024/01/04 04:33:53;;;;;;;0.50;0.50;;;;;;;3.14;100.00;99306.25;4980403;28;20037;-74
2024/01/04 04:36:18;;;;;;;0.40;0.40;;;;;;;3.03;100.00;99300.25;4996736;28;20400;-75
2024/01/04 04:38:50;;;;;;;0.40;0.40;;;;;;;2.90;100.00;99297.25;4980569;28;20048;-74
2024/01/04 04:41:16;;;;;;;0.40;0.40;;;;;;;2.77;100.00;99296.88;4980741;28;20146;-74
2024/01/04 04:43:41;;;;;;;0.43;0.43;;;;;;;2.63;100.00;99299.16;5012576;28;20478;-74
2024/01/04 04:46:09;;;;;;;0.40;0.40;;;;;;;2.54;100.00;99301.94;4980233;28;20128;-74
2024/01/04 04:48:38;;;;;;;0.40;0.40;;;;;;;2.40;100.00;99300.72;4996732;28;20037;-74
2024/01/04 04:51:09;;;;;;;0.50;0.50;;;;;;;2.26;100.00;99304.00;4997315;28;20099;-74
2024/01/04 04:53:34;;;;;;;0.50;0.50;;;;;;;2.18;100.00;99305.59;4979920;28;20540;-74
2024/01/04 04:56:00;;;;;;;0.40;0.40;;;;;;;2.11;100.00;99303.72;4980445;28;20152;-74
2024/01/04 04:58:29;;;;;;;0.50;0.50;;;;;;;2.10;100.00;99300.25;4996446;28;20041;-74
2024/01/04 05:00:56;;;;;;;0.40;0.40;;;;;;;2.02;100.00;99294.91;4996344;28;20026;-74
2024/01/04 05:03:22;;;;;;;0.40;0.40;;;;;;;2.02;100.00;99304.69;4980308;28;20116;-74
2024/01/04 05:05:48;;;;;;;0.47;0.47;;;;;;;1.99;100.00;99311.13;4980320;28;20073;-74
2024/01/04 05:08:17;;;;;;;0.40;0.40;;;;;;;1.95;100.00;99302.63;4996296;28;20409;-74
2024/01/04 05:10:42;;;;;;;0.40;0.40;;;;;;;1.87;100.00;99299.94;4980312;28;20037;-74
2024/01/04 05:13:08;;;;;;;0.40;0.40;;;;;;;1.87;100.00;99299.94;4964344;28;20056;-74
2024/01/04 05:15:34;;;;;;;0.50;0.50;;;;;;;2.08;100.00;99302.22;4980112;28;20128;-74
2024/01/04 05:18:00;;;;;;;0.50;0.50;;;;;;;2.34;100.00;99315.47;4980177;28;20037;-74
2024/01/04 05:20:26;;;;;;;0.50;0.50;;;;;;;2.49;100.00;99294.47;4980243;28;20039;-74
2024/01/04 05:22:51;;;;;;;0.50;0.50;;;;;;;2.55;100.00;99301.78;4979855;28;20050;-74
2024/01/04 05:25:17;;;;;;;0.50;0.50;;;;;;;2.63;100.00;99307.13;4996061;28;20469;-74
2024/01/04 05:27:43;;;;;;;0.43;0.43;;;;;;;2.64;100.00;99314.09;4978624;28;20065;-74
2024/01/04 05:30:12;;;;;;;0.50;0.50;;;;;;;2.49;100.00;99304.25;4995354;28;20026;-74
2024/01/04 05:32:41;;;;;;;0.50;0.50;;;;;;;2.37;100.00;99309.84;4978747;28;20033;-74
2024/01/04 05:35:07;;;;;;;0.50;0.50;;;;;;;2.20;100.00;99302.81;4979823;28;20120;-74
2024/01/04 05:37:34;;;;;;;0.50;0.50;;;;;;;2.08;100.00;99302.22;4979576;28;20042;-74
2024/01/04 05:40:04;;;;;;;0.40;0.40;;;;;;;1.92;100.00;99299.47;4979821;28;20038;-74
2024/01/04 05:42:32;;;;;;;0.50;0.50;;;;;;;1.82;100.00;99298.75;5011796;28;20358;-74
2024/01/04 05:44:57;;;;;;;0.40;0.40;;;;;;;1.78;100.00;99295.59;4979987;28;20046;-74
2024/01/04 05:47:23;;;;;;;0.50;0.50;;;;;;;1.87;100.00;99301.75;4979842;28;20041;-74
2024/01/04 05:49:49;;;;;;;0.50;0.50;;;;;;;2.05;100.00;99304.38;4979936;28;20083;-74
2024/01/04 05:52:15;;;;;;;0.50;0.50;;;;;;;2.24;100.00;99304.13;4982945;28;20054;-74
2024/01/04 05:54:41;;;;;;;0.50;0.50;;;;;;;2.39;100.00;99312.34;4983539;28;20085;-74
2024/01/04 05:57:07;;;;;;;0.50;0.50;;;;;;;2.42;100.00;99312.00;4983340;28;20046;-74
2024/01/04 05:59:33;;;;;;;0.50;0.50;;;;;;;2.48;100.00;99311.38;4999186;28;20468;-74
2024/01/04 06:02:04;;;;;;;0.40;0.40;;;;;;;2.43;100.00;99308.38;4983302;28;20037;-74
2024/01/04 06:04:29;;;;;;;0.40;0.40;;;;;;;2.38;100.00;99313.31;4999517;28;20030;-74
2024/01/04 06:06:55;;;;;;;0.40;0.40;;;;;;;2.32;100.00;99306.81;4983392;28;20092;-74
2024/01/04 06:09:23;;;;;;;0.50;0.50;;;;;;;2.27;100.00;99318.91;4982784;28;20034;-73
2024/01/04 06:11:50;;;;;;;0.50;0.50;;;;;;;2.16;100.00;99314.69;4983053;28;20124;-73
2024/01/04 06:14:17;;;;;;;0.40;0.40;;;;;;;2.17;100.00;99322.50;5015705;28;20041;-73
2024/01/04 06:16:42;;;;;;;0.50;0.50;;;;;;;2.19;100.00;99323.16;5014743;28;20033;-73
2024/01/04 06:19:10;;;;;;;0.43;0.43;;;;;;;2.16;100.00;99320.81;4983046;28;20034;-73
2024/01/04 06:21:37;;;;;;;0.40;0.40;;;;;;;2.18;100.00;99324.16;4982898;28;20037;-73
2024/01/04 06:24:03;;;;;;;0.50;0.50;;;;;;;2.25;100.00;99318.22;5015427;28;20156;-74
2024/01/04 06:26:32;;;;;;;0.50;0.50;;;;;;;2.22;100.00;99321.19;4982768;28;20144;-73
2024/01/04 06:29:00;;;;;;;0.50;0.50;;;;;;;2.06;100.00;99324.56;4982867;28;20060;-73
2024/01/04 06:31:30;;;;;;;0.40;0.40;;;;;;;1.93;100.00;99322.34;5014638;28;20026;-73
2024/01/04 06:33:56;;;;;;;0.50;0.50;;;;;;;1.71;100.00;99329.81;4998480;28;20100;-74
2024/01/04 06:36:23;;;;;;;0.50;0.50;;;;;;;1.56;100.00;99331.34;4982726;28;20492;-73
2024/01/04 06:38:50;;;;;;;0.50;0.50;;;;;;;1.47;100.00;99330.44;4998587;28;20029;-76
2024/01/04 06:41:19;;;;;;;0.40;0.40;;;;;;;1.40;100.00;99325.91;4982814;28;20045;-75
2024/01/04 06:43:45;;;;;;;0.55;0.55;;;;;;;1.39;100.00;99322.44;4982666;28;20045;-75
2024/01/04 06:46:11;;;;;;;0.50;0.50;;;;;;;1.14;100.00;99323.16;4966500;28;20038;-75
2024/01/04 06:48:40;;;;;;;0.50;0.50;;;;;;;0.87;100.00;99324.88;4982544;28;20499;-74
2024/01/04 06:51:05;;;;;;;0.50;0.50;;;;;;;0.64;100.00;99314.72;4982488;28;20473;-73
2024/01/04 06:53:34;;;;;;;0.50;0.50;;;;;;;0.65;100.00;99326.13;4999011;28;20025;-74
2024/01/04 06:55:59;;;;;;;0.40;0.40;;;;;;;1.05;100.00;99320.44;4982713;28;20034;-73
2024/01/04 06:58:25;;;;;;;0.50;0.50;;;;;;;1.24;100.00;99323.94;4982319;28;20040;-73
2024/01/04 07:00:52;;;;;;;0.50;0.50;;;;;;;1.19;100.00;99323.56;4981701;28;20064;-75
2024/01/04 07:03:19;;;;;;;0.40;0.40;;;;;;;1.17;100.00;99321.06;4997507;28;20088;-75
2024/01/04 07:05:50;;;;;;;0.40;0.40;;;;;;;1.10;100.00;99318.19;4999118;28;20096;-75
2024/01/04 07:08:16;;;;;;;0.40;0.40;;;;;;;0.86;100.00;99323.22;4981921;28;20030;-74
2024/01/04 07:10:42;;;;;;;0.45;0.45;;;;;;;0.65;100.00;99331.44;5014257;28;20065;-75
2024/01/04 07:13:13;;;;;;;0.43;0.43;;;;;;;0.42;100.00;99330.97;4981838;28;20463;-75
2024/01/04 07:15:44;;;;;;;0.43;0.43;;;;;;;0.18;100.00;99334.13;4977185;28;20393;-75
2024/01/04 07:18:10;;;;;;;0.40;0.40;;;;;;;0.01;100.00;99330.44;4982175;28;20128;-75
2024/01/04 07:20:37;;;;;;;0.40;0.40;;;;;;;-0.08;100.00;99326.84;4981856;28;20061;-75
2024/01/04 07:23:04;;;;;;;0.50;0.50;;;;;;;-0.20;100.00;99330.63;4982049;28;20077;-75
2024/01/04 07:25:32;;;;;;;0.50;0.50;;;;;;;-0.28;100.00;99322.56;5014104;28;20058;-75
2024/01/04 07:28:03;;;;;;;0.50;0.50;;;;;;;-0.22;100.00;99332.56;4998644;28;20033;-75
2024/01/04 07:30:29;;;;;;;0.50;0.50;;;;;;;-0.05;100.00;99342.41;4981804;28;20041;-75
2024/01/04 07:32:54;;;;;;;0.50;0.50;;;;;;;0.19;100.00;99331.34;4981511;28;20034;-74
2024/01/04 07:35:23;;;;;;;0.50;0.50;;;;;;;0.52;100.00;99346.81;4981642;28;20026;-75
2024/01/04 07:37:49;;;;;;;0.40;0.40;;;;;;;0.90;100.00;99345.78;4981960;28;20168;-75
2024/01/04 07:40:15;;;;;;;0.50;0.50;;;;;;;1.08;100.00;99336.03;4997260;28;20446;-75
2024/01/04 07:42:41;;;;;;;0.50;0.50;;;;;;;1.00;100.00;99337.75;4981934;28;20034;-75
2024/01/04 07:45:10;;;;;;;0.40;0.40;;;;;;;0.79;100.00;99348.63;4981416;28;20558;-75
2024/01/04 07:47:36;;;;;;;0.47;0.47;;;;;;;0.60;100.00;99345.09;5013697;28;20030;-75
2024/01/04 07:50:04;;;;;;;0.50;0.50;;;;;;;0.56;100.00;99346.38;4997367;28;20389;-75
2024/01/04 07:52:29;;;;;;;0.50;0.50;;;;;;;0.49;100.00;99341.81;4965246;28;20461;-75
2024/01/04 07:54:55;;;;;;;0.50;0.50;;;;;;;0.39;100.00;99341.84;4981157;28;20109;-75
2024/01/04 07:57:21;;;;;;;0.50;0.50;;;;;;;0.24;100.00;99340.63;4981066;28;20042;-75
2024/01/04 07:59:49;;;;;;;0.40;0.40;;;;;;;0.07;100.00;99339.59;4981121;28;20072;-75
2024/01/04 08:02:18;;;;;;;0.50;0.50;;;;;;;-0.02;100.00;99342.13;4978038;28;20092;-75
2024/01/04 08:04:44;;;;;;;0.50;0.50;;;;;;;0.12;100.00;99346.09;4980916;28;20436;-75
2024/01/04 08:07:09;;;;;;;0.50;0.50;;;;;;;0.12;100.00;99345.28;4980626;28;20128;-75
2024/01/04 08:09:35;;;;;;;0.40;0.40;;;;;;;0.15;100.00;99347.63;4981407;28;20034;-75
2024/01/04 08:12:03;;;;;;;0.50;0.50;;;;;;;0.26;100.00;99346.63;4981015;28;20416;-75
2024/01/04 08:14:30;;;;;;;0.50;0.50;;;;;;;0.28;100.00;99355.25;4979859;28;20033;-75
2024/01/04 08:17:00;;;;;;;0.50;0.50;;;;;;;0.13;100.00;99342.50;4997236;28;20096;-75
2024/01/04 08:19:25;;;;;;;0.50;0.50;;;;;;;-0.07;100.00;99339.06;4980861;28;20033;-75
2024/01/04 08:21:54;;;;;;;0.50;0.50;;;;;;;-0.25;100.00;99343.41;4980838;28;20032;-75
2024/01/04 08:24:22;;;;;;;0.50;0.50;;;;;;;-0.37;100.00;99337.47;4980769;28;20037;-75
2024/01/04 08:26:48;;;;;;;0.50;0.50;;;;;;;-0.42;100.00;99341.47;4980599;28;20104;-75
2024/01/04 08:29:18;;;;;;;0.50;0.50;;;;;;;-0.53;100.00;99335.38;4980439;28;20114;-75
2024/01/04 08:31:43;;;;;;;0.50;0.50;;;;;;;-0.62;100.00;99338.03;4976255;28;20041;-75
2024/01/04 08:34:10;;;;;;;0.50;0.50;;;;;;;-0.66;100.00;99342.75;4980359;28;20026;-75
2024/01/04 08:36:39;;;;;;;0.50;0.50;;;;;;;-0.72;100.00;99352.03;4980691;28;20038;-75
2024/01/04 08:39:10;;;;;;;0.50;0.50;;;;;;;-0.84;100.00;99349.69;4980903;28;20034;-75
2024/01/04 08:41:36;;;;;;;0.50;0.50;;;;;;;-0.81;100.00;99346.78;4980468;28;20058;-75
2024/01/04 08:44:09;;;;;;;0.50;0.50;;;;;;;-0.64;100.00;99351.34;4980544;28;20065;-75
2024/01/04 08:46:39;;;;;;;0.50;0.50;;;;;;;-0.25;100.00;99367.19;4980811;28;20045;-75
2024/01/04 08:49:39;;;;;;;;;;;;;;;;;;;;;
2024/01/04 08:52:28;;;;;;;0.50;0.50;;;;;;;0.23;100.00;99345.09;4997119;28;20084;-76
2024/01/04 08:55:25;;;;;;;0.40;0.40;;;;;;;0.17;100.00;99350.97;4979091;28;20025;-75
2024/01/04 08:58:17;;;;;;;0.40;0.40;;;;;;;-0.03;100.00;99352.81;4968905;28;20725;-76
2024/01/04 09:00:43;;;;;;;0.50;0.50;;;;;;;-0.15;100.00;99359.25;4974219;28;20049;-76
2024/01/04 09:03:11;;;;;;;0.50;0.50;;;;;;;-0.28;100.00;99360.38;4993551;28;20125;-75
2024/01/04 09:05:41;;;;;;;0.50;0.50;;;;;;;-0.30;100.00;99356.19;4993660;28;20463;-75
2024/01/04 09:08:09;;;;;;;0.45;0.45;;;;;;;-0.41;100.00;99356.34;4978068;28;20474;-74
2024/01/04 09:10:52;;;;;;;0.50;0.50;;;;;;;-0.56;100.00;99355.94;4994975;28;20073;-76
2024/01/04 09:13:40;;;;;;;0.40;0.40;;;;;;;-0.61;100.00;99364.25;4999828;28;20397;-74
2024/01/04 09:16:08;;;;;;;0.40;0.40;;;;;;;-0.52;100.00;99352.88;4996321;28;20499;-76
2024/01/04 09:18:35;;;;;;;0.50;0.50;;;;;;;-0.53;100.00;99355.66;4996259;28;20251;-74
2024/01/04 09:21:01;;;;;;;0.50;0.50;;;;;;;-0.57;100.00;99359.56;4980140;28;20029;-74
2024/01/04 09:23:26;;;;;;;0.50;0.50;;;;;;;-0.64;100.00;99359.25;4979574;28;20175;-74
2024/01/04 09:25:52;;;;;;;0.50;0.50;;;;;;;-0.70;100.00;99362.47;4980489;28;20034;-75
2024/01/04 09:28:18;;;;;;;0.50;0.50;;;;;;;-0.68;100.00;99365.81;4981638;28;20037;-75
2024/01/04 09:30:44;;;;;;;0.50;0.50;;;;;;;-0.47;100.00;99371.78;4982259;28;20053;-76
2024/01/04 09:33:15;;;;;;;0.50;0.50;;;;;;;-0.21;100.00;99371.22;4999041;28;20077;-76
2024/01/04 09:35:41;;;;;;;0.50;0.50;;;;;;;0.14;100.00;99369.75;4995834;28;20481;-75
2024/01/04 09:38:07;;;;;;;0.50;0.50;;;;;;;0.70;100.00;99360.91;4983603;28;20499;-76
2024/01/04 09:40:33;;;;;;;0.50;0.50;;;;;;;1.40;100.00;99370.94;4999398;28;20042;-76
2024/01/04 09:43:00;;;;;;;0.50;0.50;;;;;;;1.82;100.00;99373.78;4983442;28;20452;-76
2024/01/04 09:45:28;;;;;;;0.50;0.50;;;;;;;1.94;100.00;99371.72;4967438;28;20042;-76
2024/01/04 09:47:56;;;;;;;0.50;0.50;;;;;;;2.00;100.00;99355.19;4983252;28;20066;-75
2024/01/04 09:50:25;;;;;;;0.50;0.50;;;;;;;1.98;100.00;99363.31;4984634;28;20038;-76
2024/01/04 09:52:56;;;;;;;0.50;0.50;;;;;;;1.73;100.00;99361.47;4983134;28;20030;-76
2024/01/04 09:55:24;;;;;;;0.50;0.50;;;;;;;1.52;100.00;99354.66;4983480;28;20464;-76
2024/01/04 09:57:50;;;;;;;0.50;0.50;;;;;;;1.35;100.00;99357.31;4982822;28;20370;-76
2024/01/04 10:00:17;;;;;;;0.50;0.50;;;;;;;1.22;100.00;99358.53;4983121;28;20124;-76
2024/01/04 10:02:45;;;;;;;0.50;0.50;;;;;;;1.22;100.00;99355.88;4999697;28;20037;-76
2024/01/04 10:05:15;;;;;;;0.50;0.50;;;;;;;1.57;100.00;99363.97;4999869;28;20034;-76
2024/01/04 10:07:49;;;;;;;0.50;0.50;;;;;;;2.29;100.00;99365.50;4998893;28;20029;-76
2024/01/04 10:10:19;;;;;;;0.50;0.50;;;;;;;2.78;100.00;99363.09;4999089;28;20048;-76
2024/01/04 10:12:45;;;;;;;0.50;0.50;;;;;;;2.93;100.00;99360.63;5015288;28;20034;-76
2024/01/04 10:15:13;;;;;;;0.43;0.43;;;;;;;2.96;100.00;99351.53;4966684;28;20052;-76
2024/01/04 10:17:40;;;;;;;0.50;0.50;;;;;;;3.05;100.00;99364.66;4999033;28;20038;-75
2024/01/04 10:20:07;;;;;;;0.50;0.50;;;;;;;3.20;100.00;99354.28;4983016;28;20041;-75
2024/01/04 10:22:32;;;;;;;0.40;0.40;;;;;;;3.12;100.00;99354.22;5015301;28;20038;-75
2024/01/04 10:25:19;;;;;;;0.50;0.50;;;;;;;3.69;100.00;99354.31;4982935;28;20041;-77
2024/01/04 10:27:56;;;;;;;0.50;0.50;;;;;;;4.89;100.00;99354.38;4995021;28;20404;-77
2024/01/04 10:30:23;;;;;;;0.60;0.60;;;;;;;5.83;100.00;99364.97;4966877;28;20034;-76
2024/01/04 10:32:50;;;;;;;0.50;0.50;;;;;;;6.59;100.00;99361.25;4982916;28;20049;-76
2024/01/04 10:35:27;;;;;;;0.50;0.50;;;;;;;6.48;100.00;99363.53;4998472;28;20076;-77
2024/01/04 10:37:58;;;;;;;0.40;0.40;;;;;;;5.43;100.00;99373.06;4997605;28;20530;-76
2024/01/04 10:40:25;;;;;;;0.50;0.50;;;;;;;4.62;100.00;99368.97;5014788;28;20021;-75
2024/01/04 10:42:54;;;;;;;0.50;0.50;;;;;;;4.40;100.00;99368.69;4981960;28;20026;-77
2024/01/04 10:45:30;;;;;;;0.50;0.50;;;;;;;4.71;100.00;99375.94;4982319;28;20080;-76
2024/01/04 10:47:56;;;;;;;0.40;0.40;;;;;;;4.89;100.00;99372.19;5014252;28;20503;-74
2024/01/04 10:50:24;;;;;;;0.50;0.50;;;;;;;4.82;100.00;99378.22;4981939;28;20034;-74
2024/01/04 10:52:56;;;;;;;0.50;0.50;;;;;;;4.80;100.00;99374.06;4982293;28;20033;-74
2024/01/04 10:55:24;;;;;;;0.47;0.47;;;;;;;4.88;100.00;99371.38;4966734;28;20037;-75
2024/01/04 10:57:51;;;;;;;0.50;0.50;;;;;;;5.19;100.00;99382.03;4998226;28;20034;-75
2024/01/04 11:00:18;;;;;;;0.50;0.50;;;;;;;5.11;100.00;99360.78;4998435;28;20034;-75
2024/01/04 11:02:43;;;;;;;0.50;0.50;;;;;;;5.21;100.00;99373.84;4981843;28;20053;-74
2024/01/04 11:05:10;;;;;;;0.40;0.40;;;;;;;5.24;100.00;99374.34;5014336;28;20076;-75
2024/01/04 11:07:39;;;;;;;0.50;0.50;;;;;;;5.27;100.00;99368.66;4981695;28;20500;-75
2024/01/04 11:10:06;;;;;;;0.50;0.50;;;;;;;5.76;100.00;99366.66;4982043;28;20110;-77
2024/01/04 11:12:33;;;;;;;0.50;0.50;;;;;;;6.44;100.00;99362.25;5013896;28;20117;-76
2024/01/04 11:14:59;;;;;;;0.50;0.50;;;;;;;6.74;100.00;99361.22;4997669;28;20116;-76
2024/01/04 11:17:54;;;;;;;0.47;0.47;;;;;;;6.43;100.00;99361.44;4980280;28;20120;-78
2024/01/04 11:21:14;;;;;;;0.43;0.43;;;;;;;6.01;100.00;99364.66;4988774;28;20046;-76
2024/01/04 11:23:55;;;;;;;0.50;0.50;;;;;;;5.67;100.00;99364.06;5012295;28;20044;-77
2024/01/04 11:26:34;;;;;;;0.40;0.40;;;;;;;5.45;100.00;99359.53;4981430;28;20030;-76
2024/01/04 11:29:06;;;;;;;0.50;0.50;;;;;;;5.86;100.00;99354.75;4981445;28;20056;-76
2024/01/04 11:31:32;;;;;;;0.50;0.50;;;;;;;6.08;100.00;99357.59;5013584;28;20036;-76
2024/01/04 11:34:03;;;;;;;0.40;0.40;;;;;;;5.77;100.00;99353.16;4997421;28;20029;-76
2024/01/04 11:36:29;;;;;;;0.50;0.50;;;;;;;5.61;100.00;99342.59;4965708;28;20073;-76
2024/01/04 11:38:57;;;;;;;0.50;0.50;;;;;;;5.41;100.00;99337.75;4997306;28;20195;-76
2024/01/04 11:41:36;;;;;;;0.30;0.30;;;;;;;5.12;100.00;99335.78;4997617;28;20038;-76